Terminal Aerodrome Forecast
Issued by NWS New Orleans/Baton Rouge, LA

Home | Current Version | Previous Version | Text Only | Print | Product List | Glossary On
Versions: 1 2 3 4 5 6 7 8 9 10 11 12 13 14
000
FTUS44 KLIX 250520
TAFNEW
TAF
KNEW 250520Z 2506/2606 14003KT P6SM SCT035 BKN150
     FM250800 26009KT P6SM VCSH SCT040 BKN130
     FM251200 26009KT P6SM VCTS SCT035CB BKN110
     FM251500 28009KT P6SM SCT045 SCT150 PROB30 2515/2521 4SM TSRA
      BKN035CB
     FM260000 28005KT P6SM SCT080 BKN140=

USA.gov is the U.S. government's official web portal to all federal, state and local government web resources and services.